Time;durP1;ratioP1;P1;durP2;ratioP2;P2;SDS_P1;SDS_P2;PMS_P1;PMS_P2;Temp;Humidity;BMP_temperature;BMP_pressure;BME280_temperature;BME280_humidity;BME280_pressure;Samples;Min_cycle;Max_cycle;Signal;HPM_P1;HPM_P2
2023/08/29 00:00:21;;;;;;;;;1.33;1.33;;;;;27.55;39.22;101294.28;5120000;27;45560;-75
2023/08/29 00:02:46;;;;;;;;;0.33;0.33;;;;;27.55;39.25;101306.81;5119509;27;47176;-74
2023/08/29 00:05:12;;;;;;;;;0.00;0.00;;;;;27.48;39.55;101288.91;5119797;27;45323;-74
2023/08/29 00:07:38;;;;;;;;;0.67;0.67;;;;;27.53;38.95;101288.31;5119374;27;45371;-74
2023/08/29 00:10:04;;;;;;;;;2.00;1.00;;;;;27.54;38.95;101305.97;5119781;27;45340;-74
2023/08/29 00:12:29;;;;;;;;;0.67;0.67;;;;;27.50;39.20;101291.41;5119493;27;47149;-75
2023/08/29 00:14:56;;;;;;;;;0.00;0.00;;;;;27.52;39.07;101287.50;5119541;27;45427;-75
2023/08/29 00:17:22;;;;;;;;;0.67;0.67;;;;;27.54;39.15;101292.63;5119602;27;45364;-74
2023/08/29 00:19:48;;;;;;;;;0.00;0.00;;;;;27.28;39.68;101248.84;5119438;27;45323;-74
2023/08/29 00:22:13;;;;;;;;;0.33;0.33;;;;;27.54;39.19;101284.59;5100300;27;45775;-74
2023/08/29 00:24:38;;;;;;;;;1.00;1.00;;;;;27.55;38.97;101293.44;5119412;27;45417;-75
2023/08/29 00:27:04;;;;;;;;;1.00;1.00;;;;;27.54;38.95;101287.28;5100999;27;45327;-74
2023/08/29 00:29:29;;;;;;;;;0.00;0.00;;;;;27.55;38.92;101282.75;5118354;27;45434;-75
2023/08/29 00:31:55;;;;;;;;;1.00;1.00;;;;;27.55;39.37;101285.44;5119017;27;47122;-75
2023/08/29 00:34:20;;;;;;;;;1.67;1.00;;;;;27.55;39.03;101290.78;5119309;27;45388;-75
2023/08/29 00:36:45;;;;;;;;;0.67;0.00;;;;;27.48;39.52;101272.09;5119032;27;45384;-76
2023/08/29 00:39:10;;;;;;;;;1.00;1.00;;;;;27.42;39.57;101264.88;5119122;27;45384;-75
2023/08/29 00:41:36;;;;;;;;;0.00;0.00;;;;;27.44;39.26;101263.66;5118906;27;45426;-75
2023/08/29 00:44:01;;;;;;;;;0.67;0.67;;;;;27.56;38.92;101287.09;5118932;27;45324;-75
2023/08/29 00:46:27;;;;;;;;;2.00;0.00;;;;;27.56;39.16;101284.41;5118940;27;45340;-75
2023/08/29 00:48:54;;;;;;;;;2.33;1.00;;;;;27.55;39.61;101286.25;5118845;27;45447;-75
2023/08/29 00:51:19;;;;;;;;;0.00;0.00;;;;;27.55;39.66;101283.59;5118882;27;47213;-74
2023/08/29 00:53:45;;;;;;;;;0.00;0.00;;;;;27.54;39.60;101287.28;5118658;27;45370;-74
2023/08/29 00:56:12;;;;;;;;;1.00;1.00;;;;;27.51;39.66;101280.50;5118909;27;45261;-74
2023/08/29 00:58:37;;;;;;;;;0.00;0.00;;;;;27.49;39.41;101277.22;5118940;27;45364;-75
2023/08/29 01:01:03;;;;;;;;;1.00;1.00;;;;;27.54;39.05;101287.28;5118519;27;45246;-74
2023/08/29 01:03:28;;;;;;;;;1.33;0.00;;;;;27.52;39.67;101275.97;5118383;27;45230;-75
2023/08/29 01:05:54;;;;;;;;;1.00;1.00;;;;;27.52;39.56;101271.47;5118675;27;45226;-75
2023/08/29 01:08:19;;;;;;;;;1.00;1.00;;;;;27.44;39.43;101260.97;5118407;27;48054;-75
2023/08/29 01:10:55;;;;;;;;;1.00;1.00;;;;;27.52;39.10;101275.97;5118546;27;45554;-75
2023/08/29 01:13:31;;;;;;;;;1.00;1.00;;;;;27.44;39.59;101263.66;5118686;27;45566;-75
2023/08/29 01:16:00;;;;;;;;;1.00;1.00;;;;;27.49;39.01;101269.19;5118732;27;45365;-74
2023/08/29 01:18:27;;;;;;;;;1.00;1.00;;;;;27.51;39.45;101269.81;5118163;27;45411;-75
2023/08/29 01:21:21;;;;;;;;;1.00;1.00;;;;;27.51;39.04;101272.47;5117014;27;46366;-75
2023/08/29 01:23:57;;;;;;;;;1.67;1.00;;;;;27.52;39.61;101262.59;5034472;28;45418;-75
2023/08/29 01:26:23;;;;;;;;;1.00;1.00;;;;;27.46;39.15;101253.56;5034673;28;45564;-75
2023/08/29 01:28:49;;;;;;;;;2.00;2.00;;;;;27.49;39.07;101255.84;5034570;28;45451;-74
2023/08/29 01:31:15;;;;;;;;;1.00;1.00;;;;;27.43;38.87;101247.84;5034048;28;45554;-74
2023/08/29 01:33:41;;;;;;;;;1.00;1.00;;;;;27.45;39.07;101243.94;5034268;28;45333;-75
2023/08/29 01:36:07;;;;;;;;;3.00;1.67;;;;;27.51;38.84;101267.13;5034169;28;45542;-75
2023/08/29 01:38:32;;;;;;;;;0.67;0.67;;;;;27.47;39.03;101249.88;5034381;28;45433;-75
2023/08/29 01:40:58;;;;;;;;;1.00;1.00;;;;;27.53;38.86;101253.56;5034163;28;45926;-74
2023/08/29 01:43:23;;;;;;;;;1.00;1.00;;;;;27.49;39.63;101250.50;5034411;28;45431;-74
2023/08/29 01:45:48;;;;;;;;;1.00;1.00;;;;;27.48;39.31;101253.38;5033368;28;45437;-75
2023/08/29 01:48:14;;;;;;;;;1.00;1.00;;;;;27.55;38.90;101256.03;5034402;28;45390;-74
2023/08/29 01:50:41;;;;;;;;;0.33;0.33;;;;;27.43;39.50;101245.16;5034359;28;46321;-74
2023/08/29 01:53:07;;;;;;;;;1.00;1.00;;;;;27.52;39.17;101263.44;5034455;28;45288;-74
2023/08/29 01:55:33;;;;;;;;;0.00;0.00;;;;;27.46;39.49;101250.06;5034433;28;45417;-75
2023/08/29 01:57:59;;;;;;;;;0.33;0.33;;;;;27.39;39.45;101240.22;5034336;28;45356;-75
2023/08/29 02:00:27;;;;;;;;;2.00;2.00;;;;;27.42;39.50;101246.19;5056443;27;46481;-74
2023/08/29 02:02:52;;;;;;;;;1.33;0.33;;;;;27.51;39.38;101259.13;5096701;27;45441;-74
2023/08/29 02:05:18;;;;;;;;;1.00;1.00;;;;;27.55;39.73;101266.72;5097177;27;45306;-74
2023/08/29 02:07:43;;;;;;;;;1.00;1.00;;;;;27.50;39.64;101249.47;5110315;27;45387;-75
2023/08/29 02:10:10;;;;;;;;;1.00;1.00;;;;;27.47;39.27;101246.38;5117500;27;46155;-75
2023/08/29 02:12:35;;;;;;;;;0.00;0.00;;;;;27.53;38.89;101256.25;5117609;27;45570;-74
2023/08/29 02:15:02;;;;;;;;;0.00;0.00;;;;;27.43;39.19;101235.28;5117739;27;45353;-75
2023/08/29 02:17:27;;;;;;;;;0.00;0.00;;;;;27.50;39.63;101254.00;5117423;27;45351;-74
2023/08/29 02:19:53;;;;;;;;;1.67;1.00;;;;;27.52;39.71;101260.75;5098824;27;46111;-74
2023/08/29 02:22:18;;;;;;;;;1.00;1.00;;;;;27.50;38.94;101259.31;5117447;27;45361;-75
2023/08/29 02:24:47;;;;;;;;;0.33;0.33;;;;;27.44;39.58;101241.44;5117611;27;45837;-74
2023/08/29 02:27:12;;;;;;;;;0.00;0.00;;;;;27.52;39.62;101260.75;5117447;27;45532;-75
2023/08/29 02:29:38;;;;;;;;;1.00;1.00;;;;;27.47;39.46;101257.06;5117223;27;46220;-75
2023/08/29 02:32:03;;;;;;;;;1.00;1.00;;;;;27.51;38.99;101255.63;5117012;27;45274;-75
2023/08/29 02:34:29;;;;;;;;;0.00;0.00;;;;;27.42;39.03;101244.34;5117485;27;45371;-75
2023/08/29 02:36:54;;;;;;;;;1.00;1.00;;;;;27.50;39.55;101262.84;5117450;27;45594;-74
2023/08/29 02:39:19;;;;;;;;;1.00;1.00;;;;;27.46;39.70;101260.75;5117113;27;46063;-74
2023/08/29 02:41:45;;;;;;;;;1.00;1.00;;;;;27.41;39.45;101242.69;5117069;27;45356;-75
2023/08/29 02:44:10;;;;;;;;;2.00;2.00;;;;;27.51;38.98;101264.47;5117254;27;45397;-74
2023/08/29 02:46:35;;;;;;;;;1.67;1.00;;;;;27.52;38.83;101251.91;5116262;27;46940;-74
2023/08/29 02:49:00;;;;;;;;;0.67;0.67;;;;;27.50;39.23;101251.31;5117000;27;45384;-75
2023/08/29 02:51:26;;;;;;;;;3.00;1.00;;;;;27.52;38.86;101244.72;5116368;27;45314;-75
2023/08/29 02:53:51;;;;;;;;;0.67;0.67;;;;;27.52;38.96;101247.41;5117198;27;45429;-75
2023/08/29 02:56:16;;;;;;;;;1.67;0.67;;;;;27.53;38.95;101245.56;5117126;27;45299;-74
2023/08/29 02:58:42;;;;;;;;;0.67;0.67;;;;;27.41;39.62;101234.66;5116781;27;45372;-75
2023/08/29 03:01:11;;;;;;;;;1.00;1.00;;;;;27.52;38.79;101252.75;5116537;27;45377;-74
2023/08/29 03:03:37;;;;;;;;;1.00;1.00;;;;;27.54;38.81;101251.69;5117035;27;45393;-74
2023/08/29 03:06:02;;;;;;;;;1.00;1.00;;;;;27.54;39.39;101257.03;5116796;27;45356;-74
2023/08/29 03:08:28;;;;;;;;;1.00;1.00;;;;;27.50;39.50;101249.47;5116502;27;45522;-75
2023/08/29 03:10:54;;;;;;;;;1.33;1.33;;;;;27.53;38.99;101253.56;5116902;27;45325;-74
2023/08/29 03:13:19;;;;;;;;;2.00;1.33;;;;;27.52;39.00;101255.41;5116988;27;45411;-74
2023/08/29 03:15:45;;;;;;;;;1.00;1.00;;;;;27.50;39.26;101249.47;5116457;27;45360;-75
2023/08/29 03:18:11;;;;;;;;;1.00;1.00;;;;;27.41;38.99;101234.66;5116010;27;45398;-75
2023/08/29 03:20:44;;;;;;;;;0.67;0.67;;;;;27.41;39.58;101234.66;5116568;27;45424;-74
2023/08/29 03:23:10;;;;;;;;;0.00;0.00;;;;;27.51;39.38;101247.59;5117040;27;45371;-75
2023/08/29 03:25:36;;;;;;;;;1.00;1.00;;;;;27.39;39.69;101221.53;5116758;27;45459;-75
2023/08/29 03:28:02;;;;;;;;;0.00;0.00;;;;;27.50;39.05;101245.97;5116456;27;46233;-75
2023/08/29 03:30:28;;;;;;;;;0.00;0.00;;;;;27.49;39.17;101242.47;5116289;27;45353;-74
2023/08/29 03:32:54;;;;;;;;;1.00;1.00;;;;;27.43;38.97;101237.94;5116449;27;45288;-75
2023/08/29 03:35:20;;;;;;;;;0.67;0.67;;;;;27.44;39.60;101242.28;5116805;27;45333;-75
2023/08/29 03:37:45;;;;;;;;;1.00;1.00;;;;;27.49;39.55;101249.66;5116363;27;46459;-74
2023/08/29 03:40:12;;;;;;;;;1.33;0.67;;;;;27.49;39.66;101247.00;5116378;27;45372;-74
2023/08/29 03:42:37;;;;;;;;;3.33;2.33;;;;;27.46;38.84;101240.22;5097835;27;45379;-75
2023/08/29 03:45:03;;;;;;;;;0.67;0.67;;;;;27.42;39.59;101236.31;5116035;27;45366;-75
2023/08/29 03:47:29;;;;;;;;;2.00;0.33;;;;;27.23;39.63;101200.56;5116013;27;46126;-74
2023/08/29 03:49:54;;;;;;;;;0.67;0.67;;;;;27.48;39.05;101232.78;5097788;27;45394;-75
2023/08/29 03:52:24;;;;;;;;;1.00;1.00;;;;;27.48;39.35;101242.69;5116489;27;45384;-75
2023/08/29 03:54:55;;;;;;;;;1.00;1.00;;;;;27.48;39.64;101235.47;5116574;27;45367;-75
2023/08/29 03:57:22;;;;;;;;;2.33;1.00;;;;;27.48;39.02;101240.81;5116099;27;46645;-75
2023/08/29 03:59:47;;;;;;;;;2.33;1.00;;;;;27.40;38.96;101225.03;5116241;27;45226;-74
2023/08/29 04:02:13;;;;;;;;;1.00;1.00;;;;;27.15;38.89;101189.09;5116385;27;45349;-74
2023/08/29 04:04:38;;;;;;;;;1.00;1.00;;;;;27.42;39.51;101236.31;5119755;27;45194;-75
2023/08/29 04:07:04;;;;;;;;;0.00;0.00;;;;;27.49;38.94;101238.97;5101515;27;48026;-75
2023/08/29 04:09:31;;;;;;;;;1.00;1.00;;;;;27.48;39.67;101234.66;5098797;27;45315;-76
2023/08/29 04:11:56;;;;;;;;;1.00;1.00;;;;;27.38;38.93;101217.19;5098684;27;45304;-74
2023/08/29 04:14:21;;;;;;;;;0.00;0.00;;;;;27.39;38.99;101212.69;5099226;27;45577;-76
2023/08/29 04:16:48;;;;;;;;;2.00;0.00;;;;;27.38;38.70;101209.19;5098751;27;45730;-74
2023/08/29 04:19:14;;;;;;;;;1.00;1.00;;;;;27.46;38.85;101218.00;5098770;27;45352;-75
2023/08/29 04:21:39;;;;;;;;;0.33;0.33;;;;;27.41;39.45;101221.31;5098913;27;45454;-74
2023/08/29 04:24:05;;;;;;;;;0.00;0.00;;;;;27.47;39.69;101233.84;5098780;27;45559;-74
2023/08/29 04:26:31;;;;;;;;;0.00;0.00;;;;;27.38;39.11;101219.88;5098225;27;46071;-75
2023/08/29 04:28:56;;;;;;;;;0.67;0.00;;;;;27.47;39.36;101233.84;5098648;27;45356;-75
2023/08/29 04:31:21;;;;;;;;;1.00;1.00;;;;;27.39;39.14;101218.84;5098776;27;45417;-74
2023/08/29 04:33:47;;;;;;;;;1.00;1.00;;;;;27.48;39.08;101240.03;5098684;27;45397;-74
2023/08/29 04:36:16;;;;;;;;;1.00;1.00;;;;;27.47;39.69;101233.84;5098435;27;46188;-75
2023/08/29 04:38:42;;;;;;;;;1.00;1.00;;;;;27.47;39.08;101235.69;5098665;27;45466;-74
2023/08/29 04:41:08;;;;;;;;;0.00;0.00;;;;;27.48;39.57;101237.34;5103521;27;45358;-75
2023/08/29 04:43:33;;;;;;;;;0.00;0.00;;;;;27.40;39.34;101231.16;5119193;27;45358;-74
2023/08/29 04:45:59;;;;;;;;;1.00;1.00;;;;;27.33;39.77;101218.84;5118742;27;45374;-75
2023/08/29 04:48:24;;;;;;;;;1.00;0.67;;;;;27.46;39.06;101236.72;5118968;27;45474;-75
2023/08/29 04:50:49;;;;;;;;;1.00;1.00;;;;;27.43;39.51;101234.47;5119396;27;45250;-75
2023/08/29 04:53:15;;;;;;;;;1.00;1.00;;;;;27.43;39.69;101229.13;5119171;27;45443;-75
2023/08/29 04:55:40;;;;;;;;;0.00;0.00;;;;;27.38;39.01;101222.53;5118676;27;45977;-75
2023/08/29 04:58:05;;;;;;;;;0.67;0.67;;;;;27.40;39.10;101227.69;5118894;27;45325;-75
2023/08/29 05:00:31;;;;;;;;;1.00;1.00;;;;;27.43;39.72;101232.59;5118536;27;47708;-75
2023/08/29 05:02:56;;;;;;;;;1.00;1.00;;;;;27.42;39.55;101230.16;5100310;27;45577;-74
2023/08/29 05:05:22;;;;;;;;;1.00;1.00;;;;;27.38;39.68;101227.06;5118653;27;45374;-75
2023/08/29 05:07:47;;;;;;;;;0.00;0.00;;;;;27.42;39.12;101233.66;5118368;27;45288;-75
2023/08/29 05:10:13;;;;;;;;;4.00;1.00;;;;;27.39;39.64;101229.53;5118350;27;45198;-75
2023/08/29 05:12:39;;;;;;;;;1.00;1.00;;;;;27.45;39.78;101235.09;5118682;27;45216;-74
2023/08/29 05:15:04;;;;;;;;;0.00;0.00;;;;;27.35;39.38;101220.28;5117849;27;47100;-74
2023/08/29 05:17:30;;;;;;;;;1.00;1.00;;;;;27.45;39.07;101232.41;5118692;27;45600;-74
2023/08/29 05:19:55;;;;;;;;;0.00;0.00;;;;;27.46;39.36;101234.03;5118587;27;45293;-74
2023/08/29 05:22:20;;;;;;;;;1.00;1.00;;;;;27.45;38.96;101227.91;5118691;27;45396;-75
2023/08/29 05:24:46;;;;;;;;;1.00;1.00;;;;;27.44;38.89;101226.25;5118078;27;46550;-74
2023/08/29 05:27:11;;;;;;;;;0.00;0.00;;;;;27.21;39.60;101187.44;5118340;27;45337;-74
2023/08/29 05:29:36;;;;;;;;;1.00;1.00;;;;;27.35;39.31;101204.25;5117894;27;45360;-75
2023/08/29 05:32:02;;;;;;;;;1.00;1.00;;;;;27.46;38.92;101220.69;5118311;27;45371;-74
2023/08/29 05:34:27;;;;;;;;;1.00;1.00;;;;;27.46;39.25;101232.19;5117932;27;46136;-74
2023/08/29 05:36:53;;;;;;;;;1.00;1.00;;;;;27.43;39.07;101221.91;5118124;27;45432;-75
2023/08/29 05:39:19;;;;;;;;;1.00;1.00;;;;;27.46;38.86;101221.50;5117854;27;45440;-76
2023/08/29 05:41:45;;;;;;;;;1.00;1.00;;;;;27.47;39.66;101222.34;5118107;27;45341;-75
2023/08/29 05:44:10;;;;;;;;;1.00;1.00;;;;;27.42;39.83;101222.97;5117840;27;46228;-74
2023/08/29 05:46:35;;;;;;;;;1.00;1.00;;;;;27.39;39.53;101224.19;5117667;27;45405;-75
2023/08/29 05:49:01;;;;;;;;;1.00;1.00;;;;;27.46;39.71;101232.19;5118147;27;45364;-75
2023/08/29 05:51:26;;;;;;;;;1.00;1.00;;;;;27.46;39.58;101234.03;5118128;27;45393;-75
2023/08/29 05:53:52;;;;;;;;;1.00;1.00;;;;;27.44;39.02;101230.75;5117418;27;47342;-74
2023/08/29 05:56:17;;;;;;;;;1.00;1.00;;;;;27.36;39.29;101221.09;5117794;27;45431;-75
2023/08/29 05:58:43;;;;;;;;;1.00;1.00;;;;;27.18;39.56;101191.34;5117797;27;45314;-75
2023/08/29 06:01:09;;;;;;;;;1.00;1.00;;;;;27.45;39.80;101243.94;5117880;27;45487;-75
2023/08/29 06:03:35;;;;;;;;;0.67;0.67;;;;;27.46;39.60;101234.03;5117793;27;46232;-74
2023/08/29 06:06:03;;;;;;;;;0.33;0.33;;;;;27.37;39.05;101212.06;5117709;27;45457;-75
2023/08/29 06:08:28;;;;;;;;;1.00;1.00;;;;;27.43;39.44;101229.94;5117112;27;45368;-75
2023/08/29 06:10:54;;;;;;;;;1.00;1.00;;;;;27.37;39.13;101212.06;5117631;27;45417;-74
2023/08/29 06:13:19;;;;;;;;;1.00;0.00;;;;;27.46;38.92;101231.38;5117935;27;46164;-75
2023/08/29 06:15:44;;;;;;;;;1.67;1.00;;;;;27.46;39.01;101234.88;5099043;27;45485;-73
2023/08/29 06:18:10;;;;;;;;;1.00;1.00;;;;;27.39;39.82;101216.19;5117891;27;45461;-74
2023/08/29 06:20:36;;;;;;;;;1.00;1.00;;;;;27.35;39.61;101214.13;5099158;27;45504;-77
2023/08/29 06:23:03;;;;;;;;;2.67;1.00;;;;;27.42;39.59;101233.66;5116331;27;45543;-75
2023/08/29 06:25:28;;;;;;;;;1.00;1.00;;;;;27.35;39.17;101214.13;5117336;27;45298;-74
2023/08/29 06:27:54;;;;;;;;;1.33;1.33;;;;;27.47;39.43;101235.69;5116745;27;45241;-74
2023/08/29 06:30:19;;;;;;;;;0.00;0.00;;;;;27.51;39.86;101240.41;5117645;27;45322;-75
2023/08/29 06:32:45;;;;;;;;;1.00;1.00;;;;;27.60;39.71;101229.50;5098797;27;46373;-74
2023/08/29 06:35:11;;;;;;;;;1.33;1.33;;;;;27.73;39.32;101231.31;5117312;27;45412;-72
2023/08/29 06:37:37;;;;;;;;;5.00;4.00;;;;;27.74;38.49;101211.56;5098940;27;45323;-75
2023/08/29 06:40:05;;;;;;;;;8.00;8.00;;;;;27.60;36.65;101213.47;5117088;27;45399;-74
2023/08/29 06:42:31;;;;;;;;;9.00;7.00;;;;;27.31;36.38;101231.59;5115872;27;45658;-74
2023/08/29 06:44:58;;;;;;;;;9.33;7.67;;;;;26.85;37.04;101230.31;5116455;27;45528;-74
2023/08/29 06:47:26;;;;;;;;;6.67;6.00;;;;;26.44;37.20;101225.97;5117029;27;45294;-75
2023/08/29 06:49:55;;;;;;;;;5.33;5.00;;;;;26.39;38.12;101219.34;5085556;27;45562;-75
2023/08/29 06:52:21;;;;;;;;;6.00;6.00;;;;;26.44;37.82;101215.28;5113118;27;47066;-75
2023/08/29 06:54:46;;;;;;;;;5.00;5.00;;;;;26.41;37.86;101211.16;5113919;27;45498;-74
2023/08/29 06:57:12;;;;;;;;;3.00;3.00;;;;;26.54;37.85;101218.41;5116759;27;45282;-75
2023/08/29 06:59:37;;;;;;;;;2.67;2.67;;;;;26.62;37.83;101225.41;5115785;27;45375;-75
2023/08/29 07:02:02;;;;;;;;;6.00;5.00;;;;;26.69;37.98;101223.56;5115961;27;45400;-75
2023/08/29 07:04:27;;;;;;;;;3.67;3.67;;;;;26.65;38.28;101200.16;5114408;27;45531;-75
2023/08/29 07:06:53;;;;;;;;;4.33;3.67;;;;;26.84;37.85;101217.19;5114699;27;45426;-75
2023/08/29 07:09:18;;;;;;;;;5.00;5.00;;;;;26.92;38.13;101216.16;5115777;27;49344;-75
2023/08/29 07:11:43;;;;;;;;;3.67;3.67;;;;;26.99;38.09;101217.00;5116227;27;45254;-74
2023/08/29 07:14:09;;;;;;;;;4.67;3.00;;;;;26.98;38.22;101211.88;5115716;27;45516;-75
2023/08/29 07:16:34;;;;;;;;;4.67;4.67;;;;;27.14;37.50;101224.03;5115222;27;45679;-75
2023/08/29 07:18:59;;;;;;;;;3.33;3.33;;;;;27.20;38.12;101215.16;5115176;27;45359;-74
2023/08/29 07:21:25;;;;;;;;;6.00;4.00;;;;;27.21;37.85;101208.81;5115889;27;46078;-75
2023/08/29 07:23:50;;;;;;;;;3.33;3.33;;;;;27.30;37.73;101212.06;5115188;27;45697;-74
2023/08/29 07:26:15;;;;;;;;;3.33;3.33;;;;;27.38;37.34;101213.69;5116157;27;45292;-75
2023/08/29 07:28:41;;;;;;;;;3.00;3.00;;;;;27.35;37.38;101201.59;5115813;27;45323;-75
2023/08/29 07:31:06;;;;;;;;;4.00;3.00;;;;;27.50;37.85;101216.56;5115666;27;46202;-75
2023/08/29 07:33:31;;;;;;;;;4.00;2.67;;;;;27.47;37.50;101208.97;5097900;27;45342;-74
2023/08/29 07:35:57;;;;;;;;;4.67;4.67;;;;;27.60;37.47;101221.47;5115430;27;45231;-74
2023/08/29 07:38:23;;;;;;;;;3.00;3.00;;;;;27.63;38.00;101221.91;5117484;27;45349;-75
2023/08/29 07:40:48;;;;;;;;;1.67;1.67;;;;;27.64;38.15;101214.69;5119247;27;45354;-75
2023/08/29 07:43:15;;;;;;;;;3.33;3.33;;;;;27.69;37.80;101214.88;5119017;27;45364;-75
2023/08/29 07:45:40;;;;;;;;;2.33;2.33;;;;;27.68;37.49;101213.25;5119368;27;45348;-74
2023/08/29 07:48:06;;;;;;;;;3.00;3.00;;;;;27.72;38.00;101209.09;5118925;27;45506;-76
2023/08/29 07:50:31;;;;;;;;;3.67;3.00;;;;;27.77;37.46;101213.81;5117970;27;46262;-74
2023/08/29 07:52:57;;;;;;;;;4.00;4.00;;;;;27.81;38.14;101220.44;5118296;27;45491;-75
2023/08/29 07:55:22;;;;;;;;;3.00;3.00;;;;;27.69;38.09;101188.13;5124284;27;45447;-74
2023/08/29 07:57:48;;;;;;;;;3.67;2.00;;;;;27.84;37.58;101203.94;5119616;27;45285;-74
2023/08/29 08:00:14;;;;;;;;;3.33;2.33;;;;;27.94;37.80;101210.72;5118466;27;46178;-74
2023/08/29 08:02:40;;;;;;;;;1.00;1.00;;;;;28.00;38.14;101217.88;5117695;27;45606;-75
2023/08/29 08:05:10;;;;;;;;;3.00;3.00;;;;;28.05;37.73;101203.88;5100326;27;45532;-75
2023/08/29 08:07:36;;;;;;;;;2.67;2.67;;;;;28.01;38.02;101194.63;5118463;27;45383;-75
2023/08/29 08:10:04;;;;;;;;;3.00;3.00;;;;;28.11;37.63;101210.22;5117108;27;47974;-75
2023/08/29 08:12:30;;;;;;;;;2.00;2.00;;;;;28.20;37.78;101210.78;5100411;27;45905;-75
2023/08/29 08:14:55;;;;;;;;;3.00;3.00;;;;;28.10;37.61;101193.38;5118631;27;45375;-76
2023/08/29 08:17:21;;;;;;;;;3.00;3.00;;;;;28.25;37.88;101209.13;5118881;27;45541;-75
2023/08/29 08:19:47;;;;;;;;;5.33;3.00;;;;;28.23;37.80;101197.00;5099903;27;48195;-76
2023/08/29 08:22:13;;;;;;;;;2.67;2.67;;;;;28.31;38.10;101209.31;5118803;27;45419;-75
2023/08/29 08:24:39;;;;;;;;;3.00;2.00;;;;;28.26;38.04;101201.94;5118882;27;45678;-75
2023/08/29 08:27:05;;;;;;;;;2.00;2.00;;;;;28.33;37.62;101212.59;5118266;27;45504;-76
2023/08/29 08:29:31;;;;;;;;;2.67;2.67;;;;;28.40;38.09;101216.03;5118361;27;46384;-75
2023/08/29 08:31:56;;;;;;;;;3.00;3.00;;;;;28.43;37.83;101218.28;5118386;27;45514;-75
2023/08/29 08:34:21;;;;;;;;;1.33;1.33;;;;;28.47;37.59;101214.16;5099259;27;45390;-75
2023/08/29 08:36:46;;;;;;;;;3.00;3.00;;;;;28.42;37.77;101199.78;5117804;27;46224;-74
2023/08/29 08:39:12;;;;;;;;;3.33;3.00;;;;;28.53;37.57;101209.81;5118188;27;45396;-74
2023/08/29 08:41:38;;;;;;;;;3.33;3.33;;;;;28.56;37.72;101220.09;5118477;27;45376;-74
2023/08/29 08:44:08;;;;;;;;;3.00;3.00;;;;;28.61;37.63;101214.09;5118523;27;45425;-75
2023/08/29 08:46:34;;;;;;;;;3.33;3.33;;;;;28.62;37.54;101213.84;5118217;27;45527;-75
2023/08/29 08:49:01;;;;;;;;;1.67;1.67;;;;;28.65;37.43;101211.81;5116161;27;46344;-74
2023/08/29 08:51:29;;;;;;;;;2.00;2.00;;;;;28.66;37.97;101210.75;5117546;27;45363;-74
2023/08/29 08:53:55;;;;;;;;;2.00;2.00;;;;;28.66;38.10;101211.56;5118442;27;45347;-75
2023/08/29 08:56:22;;;;;;;;;3.33;3.33;;;;;28.57;37.58;101197.66;5118193;27;45420;-74
2023/08/29 08:58:48;;;;;;;;;2.00;2.00;;;;;28.63;37.78;101210.16;5117972;27;45446;-76
2023/08/29 09:01:14;;;;;;;;;1.00;1.00;;;;;28.54;37.76;101189.22;5116916;27;45378;-74
2023/08/29 09:03:40;;;;;;;;;3.00;2.67;;;;;28.67;38.02;101199.84;5117719;27;45522;-75
2023/08/29 09:06:06;;;;;;;;;2.00;2.00;;;;;28.69;37.73;101213.81;5117964;27;45442;-75
2023/08/29 09:08:31;;;;;;;;;2.00;2.00;;;;;28.70;38.01;101214.66;5117783;27;46005;-74
2023/08/29 09:11:01;;;;;;;;;2.33;2.33;;;;;28.71;38.12;101211.75;5118196;27;45428;-74
2023/08/29 09:13:26;;;;;;;;;2.00;2.00;;;;;28.72;37.47;101205.38;5099342;27;45665;-74
2023/08/29 09:15:52;;;;;;;;;2.00;2.00;;;;;28.41;37.73;101158.81;5117889;27;45454;-75
2023/08/29 09:18:34;;;;;;;;;3.00;3.00;;;;;28.76;37.87;101203.06;5117346;27;46382;-74
2023/08/29 09:21:00;;;;;;;;;3.67;2.00;;;;;28.74;37.97;101205.97;5117960;27;45486;-73
2023/08/29 09:23:28;;;;;;;;;2.00;2.00;;;;;28.76;38.08;101202.22;5115726;27;45312;-74
2023/08/29 09:25:54;;;;;;;;;2.00;2.00;;;;;28.74;37.88;101203.28;5117470;27;45612;-75
2023/08/29 09:28:21;;;;;;;;;2.67;2.67;;;;;28.73;37.79;101198.13;5117396;27;46327;-75
2023/08/29 09:30:46;;;;;;;;;1.67;1.67;;;;;28.71;37.51;101200.22;5117430;27;45490;-74
2023/08/29 09:33:11;;;;;;;;;2.00;2.00;;;;;28.70;38.13;101194.03;5117334;27;45390;-74
2023/08/29 09:35:37;;;;;;;;;1.67;1.00;;;;;28.69;37.89;101203.13;5117785;27;45352;-74
2023/08/29 09:38:03;;;;;;;;;1.67;1.67;;;;;28.65;38.52;101201.88;5117172;27;47659;-75
2023/08/29 09:40:28;;;;;;;;;4.67;3.00;;;;;28.65;38.16;101201.09;5117181;27;45713;-74
2023/08/29 09:42:58;;;;;;;;;1.67;1.67;;;;;28.63;37.96;101198.63;5117507;27;45346;-75
2023/08/29 09:45:23;;;;;;;;;4.00;2.67;;;;;28.55;37.81;101186.31;5117144;27;45415;-74
2023/08/29 09:47:52;;;;;;;;;2.00;2.00;;;;;28.59;38.51;101198.25;5116760;27;45474;-75
2023/08/29 09:50:20;;;;;;;;;2.00;2.00;;;;;28.57;37.92;101191.47;5117194;27;45323;-74
2023/08/29 09:52:45;;;;;;;;;1.00;1.00;;;;;28.55;38.28;101193.56;5117400;27;45336;-74
2023/08/29 09:55:13;;;;;;;;;2.00;2.00;;;;;28.44;38.36;101176.28;5121247;27;45596;-74
2023/08/29 09:57:40;;;;;;;;;2.67;2.67;;;;;28.48;38.04;101190.91;5131737;27;45441;-74
2023/08/29 10:00:08;;;;;;;;;2.00;2.00;;;;;28.43;38.18;101170.13;5116330;27;45478;-74
2023/08/29 10:02:34;;;;;;;;;1.00;1.00;;;;;28.43;38.13;101180.81;5116573;27;45348;-75
2023/08/29 10:05:05;;;;;;;;;2.00;1.33;;;;;28.48;38.53;101183.69;5117348;27;45202;-74
2023/08/29 10:07:46;;;;;;;;;3.00;3.00;;;;;28.46;38.34;101180.44;5116319;27;46412;-74
2023/08/29 10:10:12;;;;;;;;;1.33;1.33;;;;;28.37;38.62;101166.44;5116783;27;45377;-74
2023/08/29 10:12:39;;;;;;;;;1.67;1.33;;;;;28.43;38.33;101177.31;5116941;27;45360;-74
2023/08/29 10:15:04;;;;;;;;;2.00;2.00;;;;;28.37;38.41;101169.13;5116246;27;45306;-74
2023/08/29 10:17:35;;;;;;;;;2.00;2.00;;;;;28.34;38.69;101169.53;5116042;27;46390;-74
2023/08/29 10:20:12;;;;;;;;;3.67;3.00;;;;;28.41;38.40;101169.53;5115861;27;45420;-74
2023/08/29 10:22:40;;;;;;;;;2.33;2.33;;;;;28.43;38.65;101166.63;5116815;27;45563;-75
2023/08/29 10:25:06;;;;;;;;;4.00;2.67;;;;;28.38;38.61;101159.25;5116810;27;45329;-73
2023/08/29 10:27:33;;;;;;;;;2.00;2.00;;;;;28.45;38.84;101165.41;5116273;27;47952;-75
2023/08/29 10:29:58;;;;;;;;;2.00;2.00;;;;;28.47;38.56;101162.53;5116708;27;45413;-74
2023/08/29 10:32:25;;;;;;;;;2.00;2.00;;;;;28.46;38.63;101155.53;5115334;27;45371;-74
2023/08/29 10:34:51;;;;;;;;;2.00;2.00;;;;;28.43;38.52;101146.03;5116688;27;45371;-74
2023/08/29 10:37:21;;;;;;;;;3.00;3.00;;;;;28.49;38.40;101147.88;5116387;27;46969;-74
2023/08/29 10:39:48;;;;;;;;;2.33;2.33;;;;;28.51;38.59;101147.66;5114824;27;45446;-75
2023/08/29 10:42:14;;;;;;;;;4.00;2.00;;;;;28.51;38.12;101151.16;5116678;27;45478;-74
2023/08/29 10:44:42;;;;;;;;;2.00;2.00;;;;;28.20;38.07;101101.13;5115589;27;45405;-74
2023/08/29 10:47:16;;;;;;;;;2.00;2.00;;;;;28.49;38.34;101147.88;5115793;27;47184;-74
2023/08/29 10:49:43;;;;;;;;;2.00;2.00;;;;;28.44;38.58;101136.16;5116337;27;45419;-74
2023/08/29 10:52:10;;;;;;;;;2.00;2.00;;;;;28.46;38.21;101148.31;5116055;27;45396;-75
2023/08/29 10:54:36;;;;;;;;;1.67;1.67;;;;;28.46;38.94;101150.16;5108262;27;45590;-74
2023/08/29 10:57:01;;;;;;;;;2.33;2.00;;;;;28.43;38.16;101143.34;5107403;27;45517;-73
2023/08/29 10:59:29;;;;;;;;;2.00;2.00;;;;;28.32;39.03;101142.19;5108644;27;45417;-74
2023/08/29 11:02:25;;;;;;;;;2.33;2.00;;;;;28.41;38.89;101142.75;5109135;27;45459;-74
2023/08/29 11:04:52;;;;;;;;;2.00;2.00;;;;;28.39;39.13;101150.19;5112962;27;45508;-73
2023/08/29 11:07:25;;;;;;;;;1.33;1.33;;;;;28.39;39.04;101145.63;5118586;27;45356;-74
2023/08/29 11:10:16;;;;;;;;;1.67;1.33;;;;;28.39;38.68;101136.81;5114776;27;45422;-72
2023/08/29 11:13:01;;;;;;;;;1.00;1.00;;;;;28.38;38.75;101144.00;5115232;27;45422;-74
2023/08/29 11:15:51;;;;;;;;;3.00;3.00;;;;;28.38;39.22;101144.00;5119613;27;45587;-74
2023/08/29 11:18:20;;;;;;;;;2.00;2.00;;;;;28.38;38.53;101145.88;5118909;27;47193;-74
2023/08/29 11:20:46;;;;;;;;;2.67;2.67;;;;;28.39;39.18;101137.59;5119116;27;45370;-73